Time;durP1;ratioP1;P1;durP2;ratioP2;P2;SDS_P1;SDS_P2;PMS_P1;PMS_P2;Temp;Humidity;BMP_temperature;BMP_pressure;BME280_temperature;BME280_humidity;BME280_pressure;Samples;Min_cycle;Max_cycle;Signal;HPM_P1;HPM_P2
2022/12/24 00:00:14;;;;;;;18.93;9.97;;;;;;;13.38;65.95;99925.63;675202;29;1027;-83
2022/12/24 00:00:35;;;;;;;19.23;10.25;;;;;;;13.40;66.00;99922.13;672632;29;1164;-84
2022/12/24 00:00:56;;;;;;;16.50;9.87;;;;;;;13.34;66.25;99940.44;672720;29;1039;-82
2022/12/24 00:01:17;;;;;;;19.23;9.90;;;;;;;13.36;66.22;99917.78;670099;29;1260;-83
2022/12/24 00:01:37;;;;;;;19.30;9.65;;;;;;;13.37;66.32;99923.88;667675;29;1064;-83
2022/12/24 00:02:01;;;;;;;20.67;9.37;;;;;;;13.38;65.90;99910.78;674343;29;1242;-83
2022/12/24 00:02:22;;;;;;;16.38;8.82;;;;;;;13.39;66.03;99922.16;674512;29;1263;-84
2022/12/24 00:02:42;;;;;;;16.63;9.05;;;;;;;13.35;65.75;99915.13;675212;29;1388;-83
2022/12/24 00:03:03;;;;;;;16.23;9.30;;;;;;;13.30;66.08;99908.13;670161;29;1140;-84
2022/12/24 00:03:24;;;;;;;15.53;8.80;;;;;;;13.35;66.42;99923.00;672814;29;1160;-83
2022/12/24 00:03:44;;;;;;;17.98;8.88;;;;;;;13.38;65.76;99905.53;675296;29;1006;-83
2022/12/24 00:04:05;;;;;;;19.10;8.90;;;;;;;13.45;65.96;99930.00;675167;29;1193;-83
2022/12/24 00:04:26;;;;;;;20.52;9.10;;;;;;;13.45;65.95;99923.91;670299;29;1191;-81
2022/12/24 00:04:47;;;;;;;18.33;8.70;;;;;;;13.43;65.83;99922.16;675271;29;1330;-83
2022/12/24 00:05:08;;;;;;;18.13;8.80;;;;;;;13.43;65.87;99922.16;675118;29;1223;-83
2022/12/24 00:05:28;;;;;;;18.30;9.10;;;;;;;13.40;65.66;99924.75;675160;29;1215;-83
2022/12/24 00:05:49;;;;;;;19.33;9.20;;;;;;;13.41;65.40;99921.25;675327;29;779;-83
2022/12/24 00:06:17;;;;;;;20.05;9.23;;;;;;;13.35;65.74;99923.88;675154;29;1384;-84
2022/12/24 00:06:38;;;;;;;20.98;9.18;;;;;;;13.40;65.66;99922.13;672382;29;1227;-83
2022/12/24 00:06:58;;;;;;;19.33;8.90;;;;;;;13.32;65.70;99918.63;675188;29;1065;-83
2022/12/24 00:07:19;;;;;;;18.37;8.30;;;;;;;13.44;65.66;99930.88;677909;29;930;-83
2022/12/24 00:07:39;;;;;;;16.70;8.00;;;;;;;13.40;65.76;99923.91;674815;29;1054;-83
2022/12/24 00:08:00;;;;;;;16.70;7.90;;;;;;;13.39;65.73;99928.25;667568;29;1170;-83
2022/12/24 00:08:20;;;;;;;17.58;8.45;;;;;;;13.31;65.52;99927.34;672680;29;1114;-83
2022/12/24 00:08:41;;;;;;;19.05;8.75;;;;;;;13.36;65.86;99936.13;677800;29;1279;-83
2022/12/24 00:09:02;;;;;;;23.40;9.20;;;;;;;13.37;65.77;99922.13;667488;29;1180;-83
2022/12/24 00:09:22;;;;;;;21.58;9.20;;;;;;;13.38;65.71;99923.88;667734;29;913;-84
2022/12/24 00:09:43;;;;;;;18.83;8.55;;;;;;;13.42;65.63;99936.09;675230;29;1179;-83
2022/12/24 00:10:04;;;;;;;16.87;8.30;;;;;;;13.35;65.58;99939.59;670093;29;1259;-83
2022/12/24 00:10:25;;;;;;;21.10;8.20;;;;;;;13.41;65.77;99928.25;672666;29;1414;-83
2022/12/24 00:10:52;;;;;;;24.02;8.75;;;;;;;13.29;65.63;99932.56;672530;29;1282;-83
2022/12/24 00:11:13;;;;;;;21.23;8.70;;;;;;;13.38;65.59;99921.25;675186;29;995;-83
2022/12/24 00:11:34;;;;;;;19.02;8.10;;;;;;;13.35;65.60;99926.50;677723;29;1907;-83
2022/12/24 00:11:55;;;;;;;16.35;7.55;;;;;;;13.40;65.60;99927.38;672727;29;1357;-83
2022/12/24 00:12:15;;;;;;;16.67;7.40;;;;;;;13.48;65.57;99939.63;670057;29;1110;-83
2022/12/24 00:12:36;;;;;;;17.07;7.20;;;;;;;13.43;65.55;99943.13;667592;29;1091;-83
2022/12/24 00:12:56;;;;;;;20.13;7.65;;;;;;;13.37;65.68;99932.63;667618;29;1271;-83
2022/12/24 00:13:18;;;;;;;21.40;7.60;;;;;;;13.55;65.32;99936.16;667575;29;1190;-83
2022/12/24 00:13:38;;;;;;;19.38;7.70;;;;;;;13.45;65.20;99927.38;670102;29;1407;-83
2022/12/24 00:13:59;;;;;;;19.80;7.47;;;;;;;13.49;65.16;99947.50;672765;29;1111;-82
2022/12/24 00:14:20;;;;;;;18.90;7.30;;;;;;;13.36;65.63;99925.63;672685;29;1076;-82
2022/12/24 00:14:40;;;;;;;20.08;7.30;;;;;;;13.33;65.56;99937.84;675231;29;1145;-83
2022/12/24 00:15:02;;;;;;;18.67;7.47;;;;;;;13.29;65.68;99923.88;675179;29;1283;-83
2022/12/24 00:15:23;;;;;;;18.98;7.57;;;;;;;13.32;65.72;99939.59;675293;29;1359;-83
2022/12/24 00:15:43;;;;;;;19.93;7.67;;;;;;;13.27;65.55;99938.72;677786;29;1136;-83
2022/12/24 00:16:04;;;;;;;20.90;7.20;;;;;;;13.24;65.34;99942.19;672578;29;1145;-83
2022/12/24 00:16:25;;;;;;;21.92;7.15;;;;;;;13.23;65.46;99944.78;677845;29;1282;-83
2022/12/24 00:16:46;;;;;;;22.27;6.90;;;;;;;13.25;65.61;99978.00;677526;29;1377;-83
2022/12/24 00:17:06;;;;;;;19.80;7.18;;;;;;;13.30;65.71;99942.19;677843;29;991;-83
2022/12/24 00:17:27;;;;;;;18.53;7.10;;;;;;;13.32;65.42;99960.53;675407;29;805;-83
2022/12/24 00:17:48;;;;;;;15.68;6.70;;;;;;;13.35;65.32;99981.53;675160;29;1411;-83
2022/12/24 00:18:08;;;;;;;14.87;6.70;;;;;;;13.35;65.20;99997.25;670108;29;1293;-83
2022/12/24 00:18:29;;;;;;;14.95;6.57;;;;;;;13.38;64.97;99964.94;672727;29;938;-83
2022/12/24 00:18:50;;;;;;;14.75;6.72;;;;;;;13.32;65.41;99950.06;670140;29;1154;-82
2022/12/24 00:19:11;;;;;;;13.90;6.32;;;;;;;13.16;65.63;99954.38;672690;29;1070;-82
2022/12/24 00:19:32;;;;;;;13.00;6.30;;;;;;;13.27;65.20;99951.81;672632;29;1117;-83
2022/12/24 00:19:52;;;;;;;13.10;6.35;;;;;;;13.37;65.20;99950.97;672701;29;859;-83
2022/12/24 00:20:13;;;;;;;14.85;6.50;;;;;;;13.37;65.20;99973.66;677705;29;983;-83
2022/12/24 00:20:33;;;;;;;14.80;6.60;;;;;;;13.29;65.17;99947.44;677751;29;1190;-84
2022/12/24 00:20:54;;;;;;;15.65;6.70;;;;;;;13.27;65.12;99949.19;672758;29;801;-83
2022/12/24 00:21:15;;;;;;;15.77;6.80;;;;;;;13.24;65.19;99950.06;672594;29;1168;-83
2022/12/24 00:21:35;;;;;;;16.30;6.57;;;;;;;13.20;65.17;99947.41;669966;29;1136;-84
2022/12/24 00:21:56;;;;;;;16.80;7.00;;;;;;;13.30;65.28;99962.28;675217;29;1129;-83
2022/12/24 00:22:16;;;;;;;15.67;6.57;;;;;;;13.25;65.07;99956.16;677770;29;1150;-82
2022/12/24 00:22:37;;;;;;;18.30;7.20;;;;;;;13.30;65.22;99955.28;677684;29;1138;-84
2022/12/24 00:22:58;;;;;;;17.17;6.60;;;;;;;13.32;65.59;99971.03;675336;29;1456;-83
2022/12/24 00:23:19;;;;;;;17.67;6.90;;;;;;;13.27;65.22;99983.25;669995;29;1385;-83
2022/12/24 00:23:39;;;;;;;16.23;6.80;;;;;;;13.26;65.09;99961.41;670071;29;1217;-83
2022/12/24 00:24:03;;;;;;;16.60;6.80;;;;;;;13.32;64.79;99960.53;672773;29;1183;-83
2022/12/24 00:24:23;;;;;;;16.23;6.65;;;;;;;13.23;65.32;99950.03;675251;29;1338;-84
2022/12/24 00:24:44;;;;;;;17.50;6.50;;;;;;;13.34;65.15;99953.56;675128;29;1239;-82
2022/12/24 00:25:05;;;;;;;17.98;6.57;;;;;;;13.24;65.18;99957.91;675148;29;1085;-83
2022/12/24 00:25:26;;;;;;;18.50;6.72;;;;;;;13.23;64.96;99953.53;675305;29;1359;-83
2022/12/24 00:25:46;;;;;;;21.00;7.22;;;;;;;13.28;65.25;99971.91;675091;29;1099;-83
2022/12/24 00:26:07;;;;;;;21.83;7.38;;;;;;;13.25;65.21;99961.38;680394;29;1168;-83
2022/12/24 00:26:28;;;;;;;21.03;7.33;;;;;;;13.22;65.44;99966.63;675247;29;1399;-83
2022/12/24 00:26:49;;;;;;;17.60;7.28;;;;;;;13.05;65.59;99956.06;669861;29;1390;-84
2022/12/24 00:27:09;;;;;;;17.10;7.10;;;;;;;13.03;65.62;99956.03;677664;29;1191;-83
2022/12/24 00:27:30;;;;;;;16.13;7.07;;;;;;;13.02;65.99;99960.44;675342;29;1234;-82
2022/12/24 00:27:50;;;;;;;17.43;6.63;;;;;;;13.15;65.68;99977.06;672685;29;1234;-83
2022/12/24 00:28:12;;;;;;;18.70;6.97;;;;;;;13.12;65.69;99969.22;672672;29;1104;-83
2022/12/24 00:28:32;;;;;;;18.88;7.30;;;;;;;13.12;65.51;99960.47;675013;29;1060;-83
2022/12/24 00:28:54;;;;;;;16.60;7.10;;;;;;;13.21;65.65;99977.97;672671;29;1222;-83
2022/12/24 00:29:15;;;;;;;16.17;6.80;;;;;;;13.16;65.38;99963.09;672502;29;1183;-84
2022/12/24 00:29:35;;;;;;;19.95;6.78;;;;;;;13.24;65.49;99971.00;672606;29;1110;-83
2022/12/24 00:29:56;;;;;;;20.57;6.83;;;;;;;13.31;65.33;99974.53;675384;29;773;-83
2022/12/24 00:30:18;;;;;;;20.77;6.70;;;;;;;13.26;64.97;99971.00;675041;29;1217;-83
2022/12/24 00:30:40;;;;;;;17.23;6.40;;;;;;;13.27;65.10;99975.41;675268;29;1107;-83
2022/12/24 00:31:17;;;;;;;16.40;6.47;;;;;;;13.21;65.21;99973.59;672600;29;1267;-83
2022/12/24 00:31:38;;;;;;;13.25;6.03;;;;;;;13.22;65.46;99984.97;672514;29;1965;-81
2022/12/24 00:31:59;;;;;;;10.70;5.95;;;;;;;13.25;65.21;100008.53;675317;29;746;-83
2022/12/24 00:32:19;;;;;;;12.40;6.22;;;;;;;13.15;65.09;99984.94;672635;29;1256;-83
2022/12/24 00:32:40;;;;;;;15.32;6.38;;;;;;;13.08;65.43;99971.81;675113;29;1151;-84
2022/12/24 00:33:00;;;;;;;16.33;6.30;;;;;;;13.14;65.50;99988.41;677865;29;1042;-83
2022/12/24 00:33:21;;;;;;;15.65;6.25;;;;;;;13.13;65.38;99985.78;675256;29;1077;-83
2022/12/24 00:33:42;;;;;;;15.52;6.20;;;;;;;13.17;65.46;99992.81;675214;29;1000;-82
2022/12/24 00:34:03;;;;;;;18.35;6.55;;;;;;;13.09;65.46;99973.56;675177;29;1147;-83
2022/12/24 00:34:24;;;;;;;18.13;6.63;;;;;;;13.16;65.73;99991.06;672675;29;825;-83
2022/12/24 00:34:45;;;;;;;16.17;6.60;;;;;;;13.09;65.50;99995.38;675074;29;1414;-84
2022/12/24 00:35:06;;;;;;;15.45;6.32;;;;;;;13.14;65.37;100006.75;675186;29;1036;-82
2022/12/24 00:35:26;;;;;;;16.85;7.10;;;;;;;13.07;65.41;99970.91;677842;29;1129;-84
2022/12/24 00:35:49;;;;;;;15.67;7.00;;;;;;;13.01;65.77;99992.72;680508;29;911;-84
2022/12/24 00:36:10;;;;;;;15.15;6.90;;;;;;;12.87;65.83;99994.34;672527;29;1115;-84
2022/12/24 00:36:31;;;;;;;13.10;6.53;;;;;;;12.92;66.11;99989.13;672587;29;1189;-82
2022/12/24 00:36:51;;;;;;;14.13;6.43;;;;;;;12.89;65.87;99976.91;675014;29;897;-84
2022/12/24 00:37:12;;;;;;;13.40;6.43;;;;;;;12.90;66.16;99983.88;669965;29;1156;-83
2022/12/24 00:37:32;;;;;;;15.88;7.10;;;;;;;12.94;66.09;99982.19;672661;29;1102;-84
2022/12/24 00:37:53;;;;;;;15.07;7.18;;;;;;;12.97;66.16;100000.56;675239;29;1017;-84
2022/12/24 00:38:13;;;;;;;15.57;7.20;;;;;;;12.88;66.16;99986.53;675079;29;1277;-83
2022/12/24 00:38:34;;;;;;;14.88;7.20;;;;;;;12.86;65.98;99998.69;670026;29;1178;-83
2022/12/24 00:38:55;;;;;;;16.00;7.40;;;;;;;12.89;66.27;99997.84;672726;29;1124;-83
2022/12/24 00:39:15;;;;;;;16.50;7.35;;;;;;;12.88;65.99;99996.09;672588;29;1236;-84
2022/12/24 00:39:36;;;;;;;16.00;7.15;;;;;;;12.74;66.32;99980.31;672440;29;1342;-83
2022/12/24 00:39:56;;;;;;;18.93;7.20;;;;;;;12.81;66.93;99995.19;672717;29;1119;-84
2022/12/24 00:40:17;;;;;;;19.80;7.40;;;;;;;12.73;66.71;99981.19;680268;29;1209;-83
2022/12/24 00:40:38;;;;;;;21.27;7.20;;;;;;;12.75;66.96;100016.97;677793;29;1292;-83
2022/12/24 00:41:00;;;;;;;20.75;7.55;;;;;;;12.74;66.84;99998.66;675231;29;1239;-84
2022/12/24 00:41:23;;;;;;;17.73;7.55;;;;;;;12.71;66.99;100001.22;675168;29;1344;-83
2022/12/24 00:41:44;;;;;;;18.33;8.25;;;;;;;12.70;67.10;99989.00;672511;29;988;-83
2022/12/24 00:42:04;;;;;;;15.50;7.43;;;;;;;12.78;66.92;100000.41;669922;29;1225;-83
2022/12/24 00:42:25;;;;;;;15.40;7.70;;;;;;;12.69;67.19;100016.03;672660;29;1176;-83
2022/12/24 00:42:46;;;;;;;15.27;7.27;;;;;;;12.69;67.22;100000.34;672616;29;1207;-84
2022/12/24 00:43:11;;;;;;;19.33;8.00;;;;;;;12.78;67.04;100015.25;675145;29;1246;-84
2022/12/24 00:43:32;;;;;;;19.77;7.85;;;;;;;12.81;66.97;100005.69;675208;29;1032;-83
2022/12/24 00:43:57;;;;;;;17.48;7.70;;;;;;;12.82;66.91;100002.19;675250;29;1134;-82
2022/12/24 00:44:17;;;;;;;17.38;7.68;;;;;;;12.80;67.19;100027.50;675064;29;1109;-83
2022/12/24 00:44:38;;;;;;;19.25;8.07;;;;;;;12.85;67.15;100007.44;675254;29;1082;-83
2022/12/24 00:44:59;;;;;;;19.83;8.33;;;;;;;12.81;67.13;99994.31;672665;29;1039;-83
2022/12/24 00:45:19;;;;;;;19.45;8.30;;;;;;;12.80;67.00;99993.44;675082;29;1464;-83
2022/12/24 00:45:40;;;;;;;16.55;7.65;;;;;;;12.84;67.07;100003.06;672487;29;1403;-83
2022/12/24 00:46:00;;;;;;;19.47;7.90;;;;;;;12.84;66.98;100007.44;670010;29;1271;-83
2022/12/24 00:46:22;;;;;;;18.63;8.18;;;;;;;12.89;66.82;100003.97;672652;29;904;-83
2022/12/24 00:46:43;;;;;;;20.33;8.40;;;;;;;12.92;66.84;100007.47;675106;29;1189;-83
2022/12/24 00:47:03;;;;;;;17.73;8.20;;;;;;;12.92;66.64;99991.75;672446;29;1174;-83
2022/12/24 00:47:24;;;;;;;21.70;8.77;;;;;;;12.82;66.99;100007.41;675274;29;1353;-84
2022/12/24 00:47:44;;;;;;;19.92;8.43;;;;;;;12.80;67.10;100000.41;675174;29;1131;-84
2022/12/24 00:48:05;;;;;;;21.57;8.23;;;;;;;12.92;66.95;100007.47;672655;29;1112;-84
2022/12/24 00:48:26;;;;;;;18.20;7.70;;;;;;;12.94;67.00;100006.66;672711;29;954;-83
2022/12/24 00:48:47;;;;;;;18.25;7.75;;;;;;;12.91;67.10;100021.44;675067;29;1180;-84
2022/12/24 00:49:11;;;;;;;18.25;7.68;;;;;;;12.96;66.85;100009.28;677565;29;1238;-83
2022/12/24 00:49:31;;;;;;;19.10;7.70;;;;;;;12.85;67.03;99998.72;680459;29;1081;-83
2022/12/24 00:49:52;;;;;;;19.73;7.80;;;;;;;12.95;67.12;99999.66;672649;29;1077;-83
2022/12/24 00:50:13;;;;;;;19.00;8.10;;;;;;;12.95;66.64;99999.66;672559;29;1279;-83
2022/12/24 00:50:33;;;;;;;19.98;7.70;;;;;;;12.91;66.66;100003.97;669970;29;1594;-87
2022/12/24 00:50:54;;;;;;;22.97;7.70;;;;;;;13.04;66.76;100014.56;670162;29;733;-83
2022/12/24 00:51:15;;;;;;;23.03;7.53;;;;;;;12.95;66.65;99997.94;675179;29;1118;-83
2022/12/24 00:51:37;;;;;;;21.15;7.63;;;;;;;13.01;66.41;100007.56;675171;29;1903;-83
2022/12/24 00:51:58;;;;;;;18.58;7.72;;;;;;;12.94;66.49;99995.28;672644;29;1426;-84
2022/12/24 00:52:18;;;;;;;18.50;7.87;;;;;;;12.96;66.52;99988.34;672533;29;1031;-83
2022/12/24 00:52:39;;;;;;;17.48;7.63;;;;;;;13.04;66.70;99993.59;675083;29;1092;-83
2022/12/24 00:52:59;;;;;;;18.92;7.50;;;;;;;13.02;66.46;100009.31;675187;29;1142;-84
2022/12/24 00:53:20;;;;;;;19.73;7.50;;;;;;;13.00;66.45;100032.00;672533;29;1380;-84
2022/12/24 00:53:41;;;;;;;21.35;7.80;;;;;;;12.85;66.64;100001.34;669959;29;1476;-83
2022/12/24 00:54:03;;;;;;;21.83;7.93;;;;;;;12.85;66.86;99991.72;670073;29;1129;-83
2022/12/24 00:54:23;;;;;;;20.27;7.35;;;;;;;12.93;66.81;100004.91;675056;29;1349;-83
2022/12/24 00:54:44;;;;;;;17.87;7.30;;;;;;;13.03;66.56;100005.81;675036;29;1180;-83
2022/12/24 00:55:05;;;;;;;17.10;7.20;;;;;;;13.02;66.47;99991.84;677693;29;1224;-83
2022/12/24 00:55:25;;;;;;;17.77;7.30;;;;;;;13.05;66.38;99997.97;677818;29;1273;-83
2022/12/24 00:55:46;;;;;;;20.60;7.15;;;;;;;13.00;66.56;100003.19;677698;29;1213;-82
2022/12/24 00:56:07;;;;;;;21.97;7.07;;;;;;;13.08;66.10;99998.88;675176;29;1088;-83
2022/12/24 00:56:28;;;;;;;21.15;7.00;;;;;;;13.09;66.19;100003.22;672776;29;1025;-83
2022/12/24 00:56:49;;;;;;;20.00;7.37;;;;;;;13.08;66.07;99993.63;674920;29;1389;-83
2022/12/24 00:57:09;;;;;;;19.50;7.63;;;;;;;13.08;66.10;100011.97;675145;29;1270;-84
2022/12/24 00:57:30;;;;;;;21.15;8.25;;;;;;;13.02;66.18;100004.94;675146;29;1158;-83
2022/12/24 00:57:50;;;;;;;21.50;7.67;;;;;;;13.11;66.32;100008.50;675250;29;747;-83
2022/12/24 00:58:11;;;;;;;20.63;7.50;;;;;;;13.06;66.15;100008.47;672472;29;1146;-84
2022/12/24 00:58:31;;;;;;;20.13;7.07;;;;;;;13.09;66.18;100026.81;672588;29;1150;-83
2022/12/24 00:58:55;;;;;;;16.77;7.35;;;;;;;13.09;66.05;100005.84;669959;29;1290;-83
2022/12/24 00:59:16;;;;;;;17.40;7.60;;;;;;;13.03;66.23;100018.91;666492;29;1258;-84
2022/12/24 00:59:36;;;;;;;17.53;7.80;;;;;;;12.92;66.45;100007.47;672540;29;1010;-84
2022/12/24 00:59:57;;;;;;;17.42;7.40;;;;;;;12.95;66.22;99999.66;670115;29;1289;-84
2022/12/24 01:00:18;;;;;;;15.98;6.90;;;;;;;13.07;65.93;100006.69;669895;29;1047;-83
2022/12/24 01:00:38;;;;;;;16.60;6.70;;;;;;;12.98;66.39;99997.06;669974;29;1031;-84
2022/12/24 01:00:59;;;;;;;20.03;6.73;;;;;;;12.98;66.18;100004.94;672529;29;1090;-83
2022/12/24 01:01:20;;;;;;;21.98;7.20;;;;;;;13.07;66.08;100011.94;672626;29;1041;-84
2022/12/24 01:01:41;;;;;;;20.38;7.43;;;;;;;13.10;65.96;100006.75;672544;29;989;-83
2022/12/24 01:02:02;;;;;;;19.47;7.63;;;;;;;13.10;65.48;100002.34;672529;29;1092;-83
2022/12/24 01:02:22;;;;;;;19.40;7.68;;;;;;;13.24;65.52;100023.41;670097;29;819;-84
2022/12/24 01:02:43;;;;;;;19.77;7.50;;;;;;;13.12;65.73;100018.97;672526;29;1198;-82
2022/12/24 01:03:03;;;;;;;23.87;7.63;;;;;;;13.23;65.50;100026.00;674932;29;1002;-83
2022/12/24 01:03:37;;;;;;;21.48;7.20;;;;;;;13.21;65.46;100020.75;674736;29;1299;-83
2022/12/24 01:05:19;;;;;;;22.13;7.30;;;;;;;13.25;65.13;100011.16;674942;29;1197;-84
2022/12/24 01:05:40;;;;;;;20.75;7.25;;;;;;;13.26;65.54;100007.66;672505;29;1198;-84
2022/12/24 01:06:20;;;;;;;22.90;7.43;;;;;;;13.33;65.29;100030.41;669958;29;1314;-84
2022/12/24 01:06:41;;;;;;;22.30;7.30;;;;;;;13.26;65.13;100015.53;669827;29;1000;-84
2022/12/24 01:07:02;;;;;;;20.63;7.00;;;;;;;13.27;64.92;100010.31;672379;29;1155;-83
2022/12/24 01:07:23;;;;;;;22.58;6.72;;;;;;;13.20;65.08;100019.00;672694;29;1075;-83
2022/12/24 01:07:43;;;;;;;22.60;6.80;;;;;;;13.18;65.10;100046.06;664799;29;1085;-82
2022/12/24 01:08:04;;;;;;;23.10;6.97;;;;;;;13.18;65.22;100006.75;669933;29;1155;-83
2022/12/24 01:08:25;;;;;;;23.30;7.10;;;;;;;13.24;64.79;100009.41;670051;29;1396;-83
2022/12/24 01:08:48;;;;;;;21.88;6.88;;;;;;;13.26;64.99;100019.03;677737;29;1136;-83
2022/12/24 01:09:09;;;;;;;19.88;6.90;;;;;;;13.27;64.73;100027.78;677645;29;1404;-84
2022/12/24 01:09:30;;;;;;;18.42;6.63;;;;;;;13.22;64.71;100021.66;675023;29;1392;-83
2022/12/24 01:09:51;;;;;;;18.90;6.68;;;;;;;13.32;64.85;100033.06;672544;29;1071;-83
2022/12/24 01:10:14;;;;;;;21.33;6.90;;;;;;;13.28;64.82;100032.16;674975;29;1393;-83
2022/12/24 01:10:34;;;;;;;20.77;6.88;;;;;;;13.29;64.80;100023.44;677657;29;1125;-83
2022/12/24 01:10:55;;;;;;;18.55;6.82;;;;;;;13.29;64.58;100033.91;677738;29;1042;-83
2022/12/24 01:11:17;;;;;;;15.95;6.60;;;;;;;13.21;64.64;100014.66;677640;29;1110;-83
2022/12/24 01:11:37;;;;;;;17.15;6.90;;;;;;;13.30;64.50;100030.41;672358;29;1984;-83
2022/12/24 01:11:58;;;;;;;19.10;6.80;;;;;;;13.27;64.51;100027.78;677851;29;826;-83
2022/12/24 01:12:19;;;;;;;20.23;6.50;;;;;;;13.30;64.73;100025.19;674974;29;1154;-83
2022/12/24 01:12:40;;;;;;;21.17;6.15;;;;;;;13.31;64.70;100045.25;675189;29;951;-84
2022/12/24 01:13:01;;;;;;;20.90;6.30;;;;;;;13.29;64.73;100036.53;677713;29;1164;-82
2022/12/24 01:13:22;;;;;;;20.23;6.53;;;;;;;13.29;64.92;100039.16;677806;29;1438;-83
2022/12/24 01:13:43;;;;;;;23.00;7.23;;;;;;;13.23;64.62;100018.16;672468;29;1255;-84
2022/12/24 01:14:04;;;;;;;22.40;6.82;;;;;;;13.16;64.77;100023.34;677734;29;1089;-84
2022/12/24 01:14:24;;;;;;;19.70;6.60;;;;;;;13.21;64.76;100036.47;672476;29;1158;-83
2022/12/24 01:14:45;;;;;;;16.08;6.28;;;;;;;13.18;64.77;100026.00;675063;29;1254;-82
2022/12/24 01:15:06;;;;;;;15.83;6.37;;;;;;;13.22;64.71;100032.13;675015;29;1161;-83
2022/12/24 01:15:27;;;;;;;18.92;6.75;;;;;;;13.20;64.84;100033.88;675100;29;903;-84
2022/12/24 01:15:48;;;;;;;21.75;7.20;;;;;;;13.26;64.88;100028.63;669919;29;1227;-83
2022/12/24 01:16:18;;;;;;;22.67;7.80;;;;;;;13.20;64.44;100026.00;672460;29;1201;-83
2022/12/24 01:16:39;;;;;;;23.10;8.00;;;;;;;13.31;64.29;100032.16;674885;29;1129;-83
2022/12/24 01:16:59;;;;;;;20.33;7.87;;;;;;;13.20;64.46;100031.25;674997;29;1248;-83
2022/12/24 01:17:20;;;;;;;20.77;7.70;;;;;;;13.23;64.65;100046.97;669943;29;1251;-84
2022/12/24 01:17:41;;;;;;;20.23;7.07;;;;;;;13.31;64.51;100040.03;670010;29;1223;-83
2022/12/24 01:18:02;;;;;;;21.57;7.57;;;;;;;13.30;64.70;100047.00;674984;29;1143;-84
2022/12/24 01:18:23;;;;;;;20.05;7.38;;;;;;;13.27;64.50;100031.28;675044;29;1268;-83
2022/12/24 01:18:44;;;;;;;21.08;7.72;;;;;;;13.32;64.39;100033.91;677744;29;1089;-83
2022/12/24 01:19:05;;;;;;;21.80;7.80;;;;;;;13.32;64.30;100033.06;677686;29;1176;-83
2022/12/24 01:19:25;;;;;;;18.90;7.95;;;;;;;13.37;64.24;100058.41;675211;29;854;-83
2022/12/24 01:19:46;;;;;;;19.50;7.97;;;;;;;13.45;64.01;100061.06;669947;29;1093;-83
2022/12/24 01:20:12;;;;;;;22.67;8.70;;;;;;;13.43;64.26;100053.19;669841;29;1185;-83
2022/12/24 01:20:32;;;;;;;25.13;8.25;;;;;;;13.40;64.19;100037.44;672459;29;1326;-83
2022/12/24 01:20:58;;;;;;;22.17;8.00;;;;;;;13.29;64.10;100016.44;672602;29;894;-83
2022/12/24 01:21:18;;;;;;;20.15;7.60;;;;;;;13.36;64.01;100037.44;672436;29;1072;-83
2022/12/24 01:21:39;;;;;;;19.63;7.35;;;;;;;13.37;64.00;100047.91;669843;29;1411;-83
2022/12/24 01:22:00;;;;;;;19.50;7.27;;;;;;;13.35;64.23;100035.69;675138;29;1059;-83
2022/12/24 01:22:20;;;;;;;21.00;6.67;;;;;;;13.37;63.99;100037.44;672535;29;1273;-83
2022/12/24 01:22:41;;;;;;;16.75;6.20;;;;;;;13.38;63.82;100028.72;672509;29;1163;-83
2022/12/24 01:23:01;;;;;;;17.67;6.68;;;;;;;13.36;63.80;100034.81;672399;29;1194;-83
2022/12/24 01:23:22;;;;;;;17.80;7.60;;;;;;;13.35;63.79;100036.56;675244;29;898;-83
2022/12/24 01:23:43;;;;;;;19.80;8.10;;;;;;;13.41;63.84;100047.06;675038;29;1153;-83
2022/12/24 01:24:04;;;;;;;21.23;8.43;;;;;;;13.33;63.73;100061.88;675045;29;1460;-83
2022/12/24 01:24:25;;;;;;;23.73;8.52;;;;;;;13.33;63.80;100038.28;675102;29;863;-83
2022/12/24 01:24:45;;;;;;;23.70;8.30;;;;;;;13.36;63.63;100055.78;675014;29;1192;-83
2022/12/24 01:25:06;;;;;;;23.30;8.13;;;;;;;13.32;63.75;100049.63;675052;29;1099;-83
2022/12/24 01:25:27;;;;;;;19.73;7.72;;;;;;;13.38;63.81;100060.16;675189;29;1173;-83
2022/12/24 01:25:48;;;;;;;18.40;7.47;;;;;;;13.37;63.95;100047.91;675010;29;1367;-83
2022/12/24 01:26:11;;;;;;;20.63;7.97;;;;;;;13.33;63.64;100040.03;677595;29;1208;-83
2022/12/24 01:26:31;;;;;;;21.88;8.20;;;;;;;13.22;63.59;100053.09;675131;29;1023;-83
2022/12/24 01:26:52;;;;;;;24.08;8.70;;;;;;;13.27;63.66;100064.47;677506;29;1162;-83
2022/12/24 01:27:12;;;;;;;21.17;8.00;;;;;;;13.28;63.73;100042.63;674971;29;1245;-84
2022/12/24 01:27:33;;;;;;;23.48;8.32;;;;;;;13.24;64.01;100036.50;675112;29;1130;-83
2022/12/24 01:27:54;;;;;;;24.10;8.30;;;;;;;13.19;63.98;100040.84;677712;29;1004;-83
2022/12/24 01:28:14;;;;;;;24.48;8.20;;;;;;;13.14;63.86;100043.44;672488;29;1088;-83
2022/12/24 01:28:35;;;;;;;22.73;8.40;;;;;;;13.29;63.92;100054.88;669756;29;1280;-83
2022/12/24 01:28:56;;;;;;;25.20;8.70;;;;;;;13.16;63.89;100049.56;672554;29;1131;-83
2022/12/24 01:29:16;;;;;;;25.33;8.80;;;;;;;13.31;63.86;100058.38;674908;29;1377;-83
2022/12/24 01:29:38;;;;;;;28.00;8.25;;;;;;;13.18;63.92;100051.28;672575;29;1211;-84
2022/12/24 01:29:59;;;;;;;25.73;8.05;;;;;;;13.27;63.85;100057.47;672591;29;1182;-82
2022/12/24 01:30:19;;;;;;;24.57;7.77;;;;;;;13.22;63.80;100055.69;677532;29;1140;-83
2022/12/24 01:30:40;;;;;;;22.08;7.60;;;;;;;13.35;63.52;100069.75;677737;29;1095;-83
2022/12/24 01:31:13;;;;;;;24.48;7.78;;;;;;;13.22;63.69;100053.09;675119;29;1119;-83
2022/12/24 01:31:33;;;;;;;24.15;7.20;;;;;;;13.15;63.71;100053.03;669854;29;1095;-83
2022/12/24 01:31:54;;;;;;;22.93;7.20;;;;;;;13.28;63.82;100063.59;675093;29;1975;-83
2022/12/24 01:32:14;;;;;;;20.98;7.20;;;;;;;13.20;63.46;100057.44;675078;29;1225;-83
2022/12/24 01:32:35;;;;;;;23.52;7.05;;;;;;;13.30;63.40;100067.09;674919;29;1170;-83
2022/12/24 01:32:56;;;;;;;23.03;6.90;;;;;;;13.25;63.64;100074.03;675183;29;819;-83
2022/12/24 01:33:16;;;;;;;24.58;7.03;;;;;;;13.32;63.19;100069.75;675047;29;1099;-83
2022/12/24 01:33:37;;;;;;;22.58;7.55;;;;;;;13.33;63.31;100061.00;674954;29;1181;-83
2022/12/24 01:33:57;;;;;;;23.20;7.80;;;;;;;13.28;63.14;100060.97;675257;29;784;-83
2022/12/24 01:34:19;;;;;;;18.77;7.07;;;;;;;13.28;63.16;100071.47;672381;29;1255;-83
2022/12/24 01:34:39;;;;;;;17.45;6.60;;;;;;;13.18;63.39;100061.78;677621;29;1251;-83
2022/12/24 01:35:00;;;;;;;17.85;6.32;;;;;;;13.19;63.25;100074.00;677755;29;1200;-83
2022/12/24 01:35:21;;;;;;;18.73;6.70;;;;;;;13.25;63.18;100067.06;677698;29;1059;-83
2022/12/24 01:35:42;;;;;;;18.40;7.07;;;;;;;13.20;63.03;100054.81;672412;29;1028;-83
2022/12/24 01:36:03;;;;;;;18.60;7.07;;;;;;;13.26;62.75;100060.06;672357;29;1134;-83
2022/12/24 01:36:23;;;;;;;18.98;6.72;;;;;;;13.29;62.89;100070.59;675146;29;785;-83
2022/12/24 01:36:44;;;;;;;20.73;6.47;;;;;;;13.29;62.77;100063.59;677326;29;1282;-84
2022/12/24 01:37:04;;;;;;;18.35;6.38;;;;;;;13.35;62.68;100073.25;674950;29;1138;-83
2022/12/24 01:37:25;;;;;;;19.13;6.60;;;;;;;13.40;62.60;100083.75;672494;29;1167;-83
2022/12/24 01:37:46;;;;;;;17.33;6.80;;;;;;;13.30;62.33;100085.44;672362;29;1319;-84
2022/12/24 01:38:10;;;;;;;18.38;6.90;;;;;;;13.28;62.46;100090.66;674911;29;1231;-83
2022/12/24 01:38:31;;;;;;;17.95;7.00;;;;;;;13.32;62.33;100081.06;672429;29;1268;-83
2022/12/24 01:38:51;;;;;;;20.02;7.15;;;;;;;13.29;62.21;100063.59;675129;29;948;-83
2022/12/24 01:39:12;;;;;;;20.77;7.27;;;;;;;13.37;62.07;100081.09;677682;29;1222;-83
2022/12/24 01:39:33;;;;;;;21.55;6.80;;;;;;;13.36;61.97;100082.88;677645;29;929;-83
2022/12/24 01:43:22;;;;;;;18.80;6.30;;;;;;;13.31;62.03;100087.19;672639;29;1073;-82
2022/12/24 01:43:23;;;;;;;23.50;7.25;;;;;;;13.37;61.68;100081.09;672155;29;1242;-83
2022/12/24 01:43:43;;;;;;;21.23;7.20;;;;;;;13.26;61.91;100086.28;674957;29;1194;-83
2022/12/24 01:44:25;;;;;;;20.75;7.07;;;;;;;13.26;61.78;100095.03;674992;29;1225;-83
2022/12/24 01:44:50;;;;;;;17.58;6.82;;;;;;;13.23;61.78;100096.75;669750;29;1392;-82
2022/12/24 01:45:41;;;;;;;18.25;6.43;;;;;;;13.22;61.98;100097.63;672474;29;1191;-83
2022/12/24 01:46:03;;;;;;;19.15;6.30;;;;;;;13.26;62.01;100112.47;676626;29;1145;-83